sensor_id;sensor_type;location;lat;lon;timestamp;temperature;humidity
55036;DHT22;40936;53.008;6.556;2023-05-10T00:00:37;14.60;99.90
55036;DHT22;40936;53.008;6.556;2023-05-10T00:03:02;14.90;99.90
55036;DHT22;40936;53.008;6.556;2023-05-10T00:05:30;15.30;99.90
55036;DHT22;40936;53.008;6.556;2023-05-10T00:07:56;15.00;99.90
55036;DHT22;40936;53.008;6.556;2023-05-10T00:10:21;15.10;99.90
55036;DHT22;40936;53.008;6.556;2023-05-10T00:19:29;15.20;99.90
55036;DHT22;40936;53.008;6.556;2023-05-10T00:21:54;14.90;99.90
55036;DHT22;40936;53.008;6.556;2023-05-10T00:27:47;15.20;99.90
55036;DHT22;40936;53.008;6.556;2023-05-10T00:30:13;15.30;99.90
55036;DHT22;40936;53.008;6.556;2023-05-10T00:32:39;14.90;99.90
55036;DHT22;40936;53.008;6.556;2023-05-10T00:37:53;15.20;99.90
55036;DHT22;40936;53.008;6.556;2023-05-10T00:40:19;14.70;99.90
55036;DHT22;40936;53.008;6.556;2023-05-10T00:42:44;14.50;99.90
55036;DHT22;40936;53.008;6.556;2023-05-10T00:45:10;15.30;99.90
55036;DHT22;40936;53.008;6.556;2023-05-10T00:47:39;14.60;99.90
55036;DHT22;40936;53.008;6.556;2023-05-10T00:53:03;14.90;99.90
55036;DHT22;40936;53.008;6.556;2023-05-10T00:55:29;14.50;99.90
55036;DHT22;40936;53.008;6.556;2023-05-10T00:57:55;14.40;99.90
55036;DHT22;40936;53.008;6.556;2023-05-10T01:00:29;14.70;99.90
55036;DHT22;40936;53.008;6.556;2023-05-10T01:06:24;15.30;99.90
55036;DHT22;40936;53.008;6.556;2023-05-10T01:08:50;15.30;99.90
55036;DHT22;40936;53.008;6.556;2023-05-10T01:11:15;15.20;99.90
55036;DHT22;40936;53.008;6.556;2023-05-10T01:13:42;15.00;99.90
55036;DHT22;40936;53.008;6.556;2023-05-10T01:16:08;15.10;99.90
55036;DHT22;40936;53.008;6.556;2023-05-10T01:18:35;15.20;99.90
55036;DHT22;40936;53.008;6.556;2023-05-10T01:28:33;15.00;99.90
55036;DHT22;40936;53.008;6.556;2023-05-10T01:33:47;15.10;99.90
55036;DHT22;40936;53.008;6.556;2023-05-10T01:44:44;15.10;99.90
55036;DHT22;40936;53.008;6.556;2023-05-10T01:50:34;15.10;99.90
55036;DHT22;40936;53.008;6.556;2023-05-10T01:56:20;14.60;99.90
55036;DHT22;40936;53.008;6.556;2023-05-10T01:58:47;14.80;99.90
55036;DHT22;40936;53.008;6.556;2023-05-10T02:01:14;14.70;99.90
55036;DHT22;40936;53.008;6.556;2023-05-10T02:03:40;15.10;99.90
55036;DHT22;40936;53.008;6.556;2023-05-10T02:06:06;14.80;99.90
55036;DHT22;40936;53.008;6.556;2023-05-10T02:08:33;14.80;99.90
55036;DHT22;40936;53.008;6.556;2023-05-10T02:11:01;14.40;99.90
55036;DHT22;40936;53.008;6.556;2023-05-10T02:13:27;14.80;99.90
55036;DHT22;40936;53.008;6.556;2023-05-10T02:15:54;14.90;99.90
55036;DHT22;40936;53.008;6.556;2023-05-10T02:18:20;15.10;99.90
55036;DHT22;40936;53.008;6.556;2023-05-10T02:20:47;14.30;99.90
55036;DHT22;40936;53.008;6.556;2023-05-10T02:23:14;14.30;99.90
55036;DHT22;40936;53.008;6.556;2023-05-10T02:25:41;15.00;99.90
55036;DHT22;40936;53.008;6.556;2023-05-10T02:28:07;14.90;99.90
55036;DHT22;40936;53.008;6.556;2023-05-10T02:30:34;15.00;99.90
55036;DHT22;40936;53.008;6.556;2023-05-10T02:33:00;14.60;99.90
55036;DHT22;40936;53.008;6.556;2023-05-10T02:35:27;15.00;99.90
55036;DHT22;40936;53.008;6.556;2023-05-10T02:37:53;14.80;99.90
55036;DHT22;40936;53.008;6.556;2023-05-10T02:40:19;15.00;99.90
55036;DHT22;40936;53.008;6.556;2023-05-10T02:42:45;14.30;99.90
55036;DHT22;40936;53.008;6.556;2023-05-10T02:45:13;14.30;99.90
55036;DHT22;40936;53.008;6.556;2023-05-10T02:47:40;15.10;99.90
55036;DHT22;40936;53.008;6.556;2023-05-10T02:53:06;14.90;99.90
55036;DHT22;40936;53.008;6.556;2023-05-10T02:55:38;14.20;99.90
55036;DHT22;40936;53.008;6.556;2023-05-10T02:58:05;14.90;99.90
55036;DHT22;40936;53.008;6.556;2023-05-10T03:00:31;15.00;99.90
55036;DHT22;40936;53.008;6.556;2023-05-10T03:02:57;14.40;99.90
55036;DHT22;40936;53.008;6.556;2023-05-10T03:05:23;14.10;99.90
55036;DHT22;40936;53.008;6.556;2023-05-10T03:07:48;14.70;99.90
55036;DHT22;40936;53.008;6.556;2023-05-10T03:10:14;14.10;99.90
55036;DHT22;40936;53.008;6.556;2023-05-10T03:17:55;14.10;99.90
55036;DHT22;40936;53.008;6.556;2023-05-10T03:20:24;14.90;99.90
55036;DHT22;40936;53.008;6.556;2023-05-10T03:23:01;14.10;99.90
55036;DHT22;40936;53.008;6.556;2023-05-10T03:25:27;14.30;99.90
55036;DHT22;40936;53.008;6.556;2023-05-10T03:27:53;14.30;99.90
55036;DHT22;40936;53.008;6.556;2023-05-10T03:30:19;15.30;99.90
55036;DHT22;40936;53.008;6.556;2023-05-10T03:32:45;15.00;99.90
55036;DHT22;40936;53.008;6.556;2023-05-10T03:35:11;14.50;99.90
55036;DHT22;40936;53.008;6.556;2023-05-10T03:37:38;14.80;99.90
55036;DHT22;40936;53.008;6.556;2023-05-10T03:40:04;14.20;99.90
55036;DHT22;40936;53.008;6.556;2023-05-10T03:42:29;14.80;99.90
55036;DHT22;40936;53.008;6.556;2023-05-10T03:44:55;14.90;99.90
55036;DHT22;40936;53.008;6.556;2023-05-10T03:47:21;14.30;99.90
55036;DHT22;40936;53.008;6.556;2023-05-10T03:49:47;14.20;99.90
55036;DHT22;40936;53.008;6.556;2023-05-10T03:52:12;14.30;99.90
55036;DHT22;40936;53.008;6.556;2023-05-10T03:54:38;14.10;99.90
55036;DHT22;40936;53.008;6.556;2023-05-10T03:57:03;14.70;99.90
55036;DHT22;40936;53.008;6.556;2023-05-10T03:59:29;14.70;99.90
55036;DHT22;40936;53.008;6.556;2023-05-10T04:01:55;14.60;99.90
55036;DHT22;40936;53.008;6.556;2023-05-10T04:04:20;14.20;99.90
55036;DHT22;40936;53.008;6.556;2023-05-10T04:06:47;14.80;99.90
55036;DHT22;40936;53.008;6.556;2023-05-10T04:09:12;14.80;99.90
55036;DHT22;40936;53.008;6.556;2023-05-10T04:11:38;14.00;99.90
55036;DHT22;40936;53.008;6.556;2023-05-10T04:14:03;14.40;99.90
55036;DHT22;40936;53.008;6.556;2023-05-10T04:16:29;14.10;99.90
55036;DHT22;40936;53.008;6.556;2023-05-10T04:18:55;14.60;99.90
55036;DHT22;40936;53.008;6.556;2023-05-10T04:21:20;14.70;99.90
55036;DHT22;40936;53.008;6.556;2023-05-10T04:23:46;14.30;99.90
55036;DHT22;40936;53.008;6.556;2023-05-10T04:26:12;14.80;99.90
55036;DHT22;40936;53.008;6.556;2023-05-10T04:28:37;14.60;99.90
55036;DHT22;40936;53.008;6.556;2023-05-10T04:31:07;14.80;99.90
55036;DHT22;40936;53.008;6.556;2023-05-10T04:33:33;14.60;99.90
55036;DHT22;40936;53.008;6.556;2023-05-10T04:35:59;14.00;99.90
55036;DHT22;40936;53.008;6.556;2023-05-10T04:38:24;14.00;99.90
55036;DHT22;40936;53.008;6.556;2023-05-10T04:40:50;14.70;99.90
55036;DHT22;40936;53.008;6.556;2023-05-10T04:43:16;14.70;99.90
55036;DHT22;40936;53.008;6.556;2023-05-10T04:45:41;14.30;99.90
55036;DHT22;40936;53.008;6.556;2023-05-10T04:48:07;14.50;99.90
55036;DHT22;40936;53.008;6.556;2023-05-10T04:50:33;14.30;99.90
55036;DHT22;40936;53.008;6.556;2023-05-10T04:52:58;14.30;99.90
55036;DHT22;40936;53.008;6.556;2023-05-10T04:55:24;13.90;99.90
55036;DHT22;40936;53.008;6.556;2023-05-10T04:57:50;14.00;99.90
55036;DHT22;40936;53.008;6.556;2023-05-10T05:00:16;14.00;99.90
55036;DHT22;40936;53.008;6.556;2023-05-10T05:02:42;14.10;99.90
55036;DHT22;40936;53.008;6.556;2023-05-10T05:05:08;14.00;99.90
55036;DHT22;40936;53.008;6.556;2023-05-10T05:07:33;14.00;99.90
55036;DHT22;40936;53.008;6.556;2023-05-10T05:09:59;14.20;99.90
55036;DHT22;40936;53.008;6.556;2023-05-10T05:12:24;14.40;99.90
55036;DHT22;40936;53.008;6.556;2023-05-10T05:14:50;14.00;99.90
55036;DHT22;40936;53.008;6.556;2023-05-10T05:17:16;14.00;99.90
55036;DHT22;40936;53.008;6.556;2023-05-10T05:19:41;14.20;99.90
55036;DHT22;40936;53.008;6.556;2023-05-10T05:22:07;13.90;99.90
55036;DHT22;40936;53.008;6.556;2023-05-10T05:24:36;14.80;99.90
55036;DHT22;40936;53.008;6.556;2023-05-10T05:27:05;14.50;99.90
55036;DHT22;40936;53.008;6.556;2023-05-10T05:29:31;14.60;99.90
55036;DHT22;40936;53.008;6.556;2023-05-10T05:31:57;14.60;99.90
55036;DHT22;40936;53.008;6.556;2023-05-10T05:34:22;14.00;99.90
55036;DHT22;40936;53.008;6.556;2023-05-10T05:36:48;14.00;99.90
55036;DHT22;40936;53.008;6.556;2023-05-10T05:39:13;14.40;99.90
55036;DHT22;40936;53.008;6.556;2023-05-10T05:41:39;14.90;99.90
55036;DHT22;40936;53.008;6.556;2023-05-10T05:44:05;14.20;99.90
55036;DHT22;40936;53.008;6.556;2023-05-10T05:46:30;14.90;99.90
55036;DHT22;40936;53.008;6.556;2023-05-10T05:48:56;14.90;99.90
55036;DHT22;40936;53.008;6.556;2023-05-10T05:54:54;14.40;99.90
55036;DHT22;40936;53.008;6.556;2023-05-10T05:57:20;15.00;99.90
55036;DHT22;40936;53.008;6.556;2023-05-10T05:59:45;14.60;99.90
55036;DHT22;40936;53.008;6.556;2023-05-10T06:02:11;14.50;99.90
55036;DHT22;40936;53.008;6.556;2023-05-10T06:04:36;14.70;99.90
55036;DHT22;40936;53.008;6.556;2023-05-10T06:07:02;14.50;99.90
55036;DHT22;40936;53.008;6.556;2023-05-10T06:09:27;14.30;99.90
55036;DHT22;40936;53.008;6.556;2023-05-10T06:14:57;14.30;99.90
55036;DHT22;40936;53.008;6.556;2023-05-10T06:17:22;14.80;99.90
55036;DHT22;40936;53.008;6.556;2023-05-10T06:19:48;14.90;99.90
55036;DHT22;40936;53.008;6.556;2023-05-10T06:22:13;14.40;99.90
55036;DHT22;40936;53.008;6.556;2023-05-10T06:24:39;14.80;99.90
55036;DHT22;40936;53.008;6.556;2023-05-10T06:27:05;15.00;99.90
55036;DHT22;40936;53.008;6.556;2023-05-10T06:29:31;14.90;99.90
55036;DHT22;40936;53.008;6.556;2023-05-10T06:31:56;14.40;99.90
55036;DHT22;40936;53.008;6.556;2023-05-10T06:34:22;14.50;99.90
55036;DHT22;40936;53.008;6.556;2023-05-10T06:36:47;14.20;99.90
55036;DHT22;40936;53.008;6.556;2023-05-10T06:39:13;14.80;99.90
55036;DHT22;40936;53.008;6.556;2023-05-10T06:45:10;14.70;99.90
55036;DHT22;40936;53.008;6.556;2023-05-10T06:47:35;15.10;99.90
55036;DHT22;40936;53.008;6.556;2023-05-10T06:50:01;15.30;99.90
55036;DHT22;40936;53.008;6.556;2023-05-10T06:52:27;14.40;99.90
55036;DHT22;40936;53.008;6.556;2023-05-10T06:58:28;14.50;99.90
55036;DHT22;40936;53.008;6.556;2023-05-10T07:00:54;15.10;99.90
55036;DHT22;40936;53.008;6.556;2023-05-10T07:03:19;14.60;99.90
55036;DHT22;40936;53.008;6.556;2023-05-10T07:05:49;15.30;99.90
55036;DHT22;40936;53.008;6.556;2023-05-10T07:08:15;14.50;99.90
55036;DHT22;40936;53.008;6.556;2023-05-10T07:10:40;15.30;99.90
55036;DHT22;40936;53.008;6.556;2023-05-10T07:13:06;15.00;99.90
55036;DHT22;40936;53.008;6.556;2023-05-10T07:15:32;14.80;99.90
55036;DHT22;40936;53.008;6.556;2023-05-10T07:17:58;15.20;99.90
55036;DHT22;40936;53.008;6.556;2023-05-10T07:20:24;14.90;99.90
55036;DHT22;40936;53.008;6.556;2023-05-10T07:22:50;14.40;99.90
55036;DHT22;40936;53.008;6.556;2023-05-10T07:25:15;14.60;99.90
55036;DHT22;40936;53.008;6.556;2023-05-10T07:27:41;14.60;99.90
55036;DHT22;40936;53.008;6.556;2023-05-10T07:30:06;15.10;99.90
55036;DHT22;40936;53.008;6.556;2023-05-10T07:32:32;15.20;99.90
55036;DHT22;40936;53.008;6.556;2023-05-10T07:34:58;15.40;99.90
55036;DHT22;40936;53.008;6.556;2023-05-10T07:37:23;15.50;99.90
55036;DHT22;40936;53.008;6.556;2023-05-10T07:39:49;15.10;99.90
55036;DHT22;40936;53.008;6.556;2023-05-10T07:42:14;15.80;99.90
55036;DHT22;40936;53.008;6.556;2023-05-10T07:44:40;16.00;99.90
55036;DHT22;40936;53.008;6.556;2023-05-10T07:47:06;16.00;99.90
55036;DHT22;40936;53.008;6.556;2023-05-10T07:49:31;15.10;99.90
55036;DHT22;40936;53.008;6.556;2023-05-10T07:51:57;15.70;99.90
55036;DHT22;40936;53.008;6.556;2023-05-10T07:54:22;14.80;99.90
55036;DHT22;40936;53.008;6.556;2023-05-10T07:56:48;15.00;99.90
55036;DHT22;40936;53.008;6.556;2023-05-10T07:59:14;15.60;99.90
55036;DHT22;40936;53.008;6.556;2023-05-10T08:01:40;15.70;99.90
55036;DHT22;40936;53.008;6.556;2023-05-10T08:04:06;15.30;99.90
55036;DHT22;40936;53.008;6.556;2023-05-10T08:06:31;13.80;99.90
55036;DHT22;40936;53.008;6.556;2023-05-10T08:08:57;15.30;99.90
55036;DHT22;40936;53.008;6.556;2023-05-10T08:11:22;16.00;99.90
55036;DHT22;40936;53.008;6.556;2023-05-10T08:17:10;16.00;99.90
55036;DHT22;40936;53.008;6.556;2023-05-10T08:19:35;15.20;99.90
55036;DHT22;40936;53.008;6.556;2023-05-10T08:22:01;15.90;99.90
55036;DHT22;40936;53.008;6.556;2023-05-10T08:24:27;16.20;99.90
55036;DHT22;40936;53.008;6.556;2023-05-10T08:26:52;15.10;99.90
55036;DHT22;40936;53.008;6.556;2023-05-10T08:29:18;17.60;99.90
55036;DHT22;40936;53.008;6.556;2023-05-10T08:31:43;15.90;99.90
55036;DHT22;40936;53.008;6.556;2023-05-10T08:34:09;15.20;99.90
55036;DHT22;40936;53.008;6.556;2023-05-10T08:36:34;15.10;99.90
55036;DHT22;40936;53.008;6.556;2023-05-10T08:39:01;15.50;99.90
55036;DHT22;40936;53.008;6.556;2023-05-10T08:41:27;15.90;99.90
55036;DHT22;40936;53.008;6.556;2023-05-10T08:43:53;15.70;99.90
55036;DHT22;40936;53.008;6.556;2023-05-10T08:46:19;15.20;99.90
55036;DHT22;40936;53.008;6.556;2023-05-10T08:48:45;15.40;99.90
55036;DHT22;40936;53.008;6.556;2023-05-10T08:51:13;15.20;99.90
55036;DHT22;40936;53.008;6.556;2023-05-10T08:53:39;16.00;99.90
55036;DHT22;40936;53.008;6.556;2023-05-10T08:56:05;15.60;99.90
55036;DHT22;40936;53.008;6.556;2023-05-10T08:58:31;16.20;99.90
55036;DHT22;40936;53.008;6.556;2023-05-10T09:00:57;16.30;99.90
55036;DHT22;40936;53.008;6.556;2023-05-10T09:03:23;16.10;99.90
55036;DHT22;40936;53.008;6.556;2023-05-10T09:05:48;16.60;99.90
55036;DHT22;40936;53.008;6.556;2023-05-10T09:08:14;16.30;99.90
55036;DHT22;40936;53.008;6.556;2023-05-10T09:10:42;16.50;99.90
55036;DHT22;40936;53.008;6.556;2023-05-10T09:13:09;16.50;99.90
55036;DHT22;40936;53.008;6.556;2023-05-10T09:15:35;16.20;99.90
55036;DHT22;40936;53.008;6.556;2023-05-10T09:18:00;15.50;99.90
55036;DHT22;40936;53.008;6.556;2023-05-10T09:20:27;15.30;99.90
55036;DHT22;40936;53.008;6.556;2023-05-10T09:22:53;15.80;99.90
55036;DHT22;40936;53.008;6.556;2023-05-10T09:25:19;15.40;99.90
55036;DHT22;40936;53.008;6.556;2023-05-10T09:27:45;15.30;99.90
55036;DHT22;40936;53.008;6.556;2023-05-10T09:30:15;15.40;99.90
55036;DHT22;40936;53.008;6.556;2023-05-10T09:32:44;16.10;99.90
55036;DHT22;40936;53.008;6.556;2023-05-10T09:35:17;16.10;99.90
55036;DHT22;40936;53.008;6.556;2023-05-10T09:37:44;15.80;99.90
55036;DHT22;40936;53.008;6.556;2023-05-10T09:40:16;16.20;99.90
55036;DHT22;40936;53.008;6.556;2023-05-10T09:42:43;16.20;99.90
55036;DHT22;40936;53.008;6.556;2023-05-10T09:45:16;16.60;99.90
55036;DHT22;40936;53.008;6.556;2023-05-10T09:47:41;16.70;99.90
55036;DHT22;40936;53.008;6.556;2023-05-10T09:50:07;16.70;99.90
55036;DHT22;40936;53.008;6.556;2023-05-10T09:52:49;16.70;99.90
55036;DHT22;40936;53.008;6.556;2023-05-10T09:55:15;16.40;99.90
55036;DHT22;40936;53.008;6.556;2023-05-10T09:57:41;16.00;99.90
55036;DHT22;40936;53.008;6.556;2023-05-10T10:00:07;16.10;99.90
55036;DHT22;40936;53.008;6.556;2023-05-10T10:02:33;16.40;99.90
55036;DHT22;40936;53.008;6.556;2023-05-10T10:05:00;15.70;99.90
55036;DHT22;40936;53.008;6.556;2023-05-10T10:07:26;16.40;99.90
55036;DHT22;40936;53.008;6.556;2023-05-10T10:09:52;15.70;99.90
55036;DHT22;40936;53.008;6.556;2023-05-10T10:12:18;16.10;99.90
55036;DHT22;40936;53.008;6.556;2023-05-10T10:14:45;15.90;99.90
55036;DHT22;40936;53.008;6.556;2023-05-10T10:17:11;16.20;99.90
55036;DHT22;40936;53.008;6.556;2023-05-10T10:19:37;16.00;99.90
55036;DHT22;40936;53.008;6.556;2023-05-10T10:22:02;16.70;99.90
55036;DHT22;40936;53.008;6.556;2023-05-10T10:24:28;16.70;99.90
55036;DHT22;40936;53.008;6.556;2023-05-10T10:26:54;16.40;99.90
55036;DHT22;40936;53.008;6.556;2023-05-10T10:29:27;16.90;99.90
55036;DHT22;40936;53.008;6.556;2023-05-10T10:31:57;16.40;99.90
55036;DHT22;40936;53.008;6.556;2023-05-10T10:34:25;16.30;99.90
55036;DHT22;40936;53.008;6.556;2023-05-10T10:36:53;16.40;99.90
55036;DHT22;40936;53.008;6.556;2023-05-10T10:39:19;17.00;99.90
55036;DHT22;40936;53.008;6.556;2023-05-10T10:41:49;17.10;99.90
55036;DHT22;40936;53.008;6.556;2023-05-10T10:47:03;16.70;99.90
55036;DHT22;40936;53.008;6.556;2023-05-10T10:52:22;17.00;99.90
55036;DHT22;40936;53.008;6.556;2023-05-10T10:57:33;16.70;99.90
55036;DHT22;40936;53.008;6.556;2023-05-10T11:02:43;16.30;99.90
55036;DHT22;40936;53.008;6.556;2023-05-10T11:07:59;16.50;99.90
55036;DHT22;40936;53.008;6.556;2023-05-10T11:10:25;17.10;99.90
55036;DHT22;40936;53.008;6.556;2023-05-10T11:13:01;17.20;99.90
55036;DHT22;40936;53.008;6.556;2023-05-10T11:15:31;16.70;99.90
55036;DHT22;40936;53.008;6.556;2023-05-10T11:17:56;17.40;99.90
55036;DHT22;40936;53.008;6.556;2023-05-10T11:20:22;17.30;99.90
55036;DHT22;40936;53.008;6.556;2023-05-10T11:22:53;16.80;99.90
55036;DHT22;40936;53.008;6.556;2023-05-10T11:25:19;17.00;99.90
55036;DHT22;40936;53.008;6.556;2023-05-10T11:27:47;17.90;99.90
55036;DHT22;40936;53.008;6.556;2023-05-10T11:30:13;17.90;99.90
55036;DHT22;40936;53.008;6.556;2023-05-10T11:32:39;17.60;99.90
55036;DHT22;40936;53.008;6.556;2023-05-10T11:35:08;18.10;99.90
55036;DHT22;40936;53.008;6.556;2023-05-10T11:37:34;17.50;99.90
55036;DHT22;40936;53.008;6.556;2023-05-10T11:39:59;18.10;99.90
55036;DHT22;40936;53.008;6.556;2023-05-10T11:42:25;17.40;99.90
55036;DHT22;40936;53.008;6.556;2023-05-10T11:44:50;17.30;99.90
55036;DHT22;40936;53.008;6.556;2023-05-10T11:47:16;17.60;99.90
55036;DHT22;40936;53.008;6.556;2023-05-10T11:49:45;17.10;99.90
55036;DHT22;40936;53.008;6.556;2023-05-10T11:52:11;16.80;99.90
55036;DHT22;40936;53.008;6.556;2023-05-10T11:54:37;17.30;99.90
55036;DHT22;40936;53.008;6.556;2023-05-10T11:57:02;16.50;99.90
55036;DHT22;40936;53.008;6.556;2023-05-10T11:59:28;16.60;99.90
55036;DHT22;40936;53.008;6.556;2023-05-10T12:01:53;17.00;99.90
55036;DHT22;40936;53.008;6.556;2023-05-10T12:04:19;16.70;99.90
55036;DHT22;40936;53.008;6.556;2023-05-10T12:06:45;17.00;99.90
55036;DHT22;40936;53.008;6.556;2023-05-10T12:09:11;17.00;99.90
55036;DHT22;40936;53.008;6.556;2023-05-10T12:11:38;16.50;99.90
55036;DHT22;40936;53.008;6.556;2023-05-10T12:14:05;16.60;99.90
55036;DHT22;40936;53.008;6.556;2023-05-10T12:16:31;17.00;99.90
55036;DHT22;40936;53.008;6.556;2023-05-10T12:18:57;16.40;99.90
55036;DHT22;40936;53.008;6.556;2023-05-10T12:21:23;16.80;99.90
55036;DHT22;40936;53.008;6.556;2023-05-10T12:23:52;16.60;99.90
55036;DHT22;40936;53.008;6.556;2023-05-10T12:26:21;17.20;99.90
55036;DHT22;40936;53.008;6.556;2023-05-10T12:28:47;17.00;99.90
55036;DHT22;40936;53.008;6.556;2023-05-10T12:31:12;17.00;99.90
55036;DHT22;40936;53.008;6.556;2023-05-10T12:33:42;16.50;99.90
55036;DHT22;40936;53.008;6.556;2023-05-10T12:36:09;17.00;99.90
55036;DHT22;40936;53.008;6.556;2023-05-10T12:38:38;17.20;99.90
55036;DHT22;40936;53.008;6.556;2023-05-10T12:41:05;16.70;99.90
55036;DHT22;40936;53.008;6.556;2023-05-10T12:43:31;17.20;99.90
55036;DHT22;40936;53.008;6.556;2023-05-10T12:46:03;17.10;99.90
55036;DHT22;40936;53.008;6.556;2023-05-10T12:48:29;16.50;99.90
55036;DHT22;40936;53.008;6.556;2023-05-10T12:50:56;17.10;99.90
55036;DHT22;40936;53.008;6.556;2023-05-10T12:53:22;16.80;99.90
55036;DHT22;40936;53.008;6.556;2023-05-10T12:55:47;16.60;99.90
55036;DHT22;40936;53.008;6.556;2023-05-10T12:58:13;17.20;99.90
55036;DHT22;40936;53.008;6.556;2023-05-10T13:00:39;17.30;99.90
55036;DHT22;40936;53.008;6.556;2023-05-10T13:03:04;16.60;99.90
55036;DHT22;40936;53.008;6.556;2023-05-10T13:05:34;16.70;99.90
55036;DHT22;40936;53.008;6.556;2023-05-10T13:07:59;16.40;99.90
55036;DHT22;40936;53.008;6.556;2023-05-10T13:10:25;16.60;99.90
55036;DHT22;40936;53.008;6.556;2023-05-10T13:12:51;16.90;99.90
55036;DHT22;40936;53.008;6.556;2023-05-10T13:15:16;16.50;99.90
55036;DHT22;40936;53.008;6.556;2023-05-10T13:17:42;16.00;99.90
55036;DHT22;40936;53.008;6.556;2023-05-10T13:20:08;16.10;99.90
55036;DHT22;40936;53.008;6.556;2023-05-10T13:22:34;16.70;99.90
55036;DHT22;40936;53.008;6.556;2023-05-10T13:25:00;16.70;99.90
55036;DHT22;40936;53.008;6.556;2023-05-10T13:27:26;16.00;99.90
55036;DHT22;40936;53.008;6.556;2023-05-10T13:29:52;16.30;99.90
55036;DHT22;40936;53.008;6.556;2023-05-10T13:32:17;16.20;99.90
55036;DHT22;40936;53.008;6.556;2023-05-10T13:34:43;16.60;99.90
55036;DHT22;40936;53.008;6.556;2023-05-10T13:37:08;16.80;99.90
55036;DHT22;40936;53.008;6.556;2023-05-10T13:39:34;16.60;99.90
55036;DHT22;40936;53.008;6.556;2023-05-10T13:41:59;16.90;99.90
55036;DHT22;40936;53.008;6.556;2023-05-10T13:44:25;16.40;99.90
55036;DHT22;40936;53.008;6.556;2023-05-10T13:46:51;16.60;99.90
55036;DHT22;40936;53.008;6.556;2023-05-10T13:49:16;16.50;99.90
55036;DHT22;40936;53.008;6.556;2023-05-10T13:51:43;17.30;99.90
55036;DHT22;40936;53.008;6.556;2023-05-10T13:54:08;17.00;99.90
55036;DHT22;40936;53.008;6.556;2023-05-10T13:56:34;17.20;99.90
55036;DHT22;40936;53.008;6.556;2023-05-10T13:59:00;17.80;99.90
55036;DHT22;40936;53.008;6.556;2023-05-10T14:01:25;17.20;99.90
55036;DHT22;40936;53.008;6.556;2023-05-10T14:03:51;17.00;99.90
55036;DHT22;40936;53.008;6.556;2023-05-10T14:06:17;17.40;99.90
55036;DHT22;40936;53.008;6.556;2023-05-10T14:08:42;17.00;99.90
55036;DHT22;40936;53.008;6.556;2023-05-10T14:11:08;17.70;99.90
55036;DHT22;40936;53.008;6.556;2023-05-10T14:13:34;17.40;99.90
55036;DHT22;40936;53.008;6.556;2023-05-10T14:15:59;17.30;99.90
55036;DHT22;40936;53.008;6.556;2023-05-10T14:18:28;17.00;99.90
55036;DHT22;40936;53.008;6.556;2023-05-10T14:20:54;17.20;99.90
55036;DHT22;40936;53.008;6.556;2023-05-10T14:23:21;17.00;99.90
55036;DHT22;40936;53.008;6.556;2023-05-10T14:25:52;17.30;99.90
55036;DHT22;40936;53.008;6.556;2023-05-10T14:28:17;17.10;99.90
55036;DHT22;40936;53.008;6.556;2023-05-10T14:30:44;16.80;99.90
55036;DHT22;40936;53.008;6.556;2023-05-10T14:33:09;16.70;99.90
55036;DHT22;40936;53.008;6.556;2023-05-10T14:35:35;17.00;99.90
55036;DHT22;40936;53.008;6.556;2023-05-10T14:38:01;16.70;99.90
55036;DHT22;40936;53.008;6.556;2023-05-10T14:40:27;16.90;99.90
55036;DHT22;40936;53.008;6.556;2023-05-10T14:42:53;17.20;99.90
55036;DHT22;40936;53.008;6.556;2023-05-10T14:45:20;17.30;99.90
55036;DHT22;40936;53.008;6.556;2023-05-10T14:47:46;17.00;99.90
55036;DHT22;40936;53.008;6.556;2023-05-10T14:50:11;17.20;99.90
55036;DHT22;40936;53.008;6.556;2023-05-10T14:52:37;17.10;99.90
55036;DHT22;40936;53.008;6.556;2023-05-10T14:55:03;17.50;99.90
55036;DHT22;40936;53.008;6.556;2023-05-10T14:57:28;17.80;99.90
55036;DHT22;40936;53.008;6.556;2023-05-10T14:59:55;17.70;99.90
55036;DHT22;40936;53.008;6.556;2023-05-10T15:02:21;17.40;99.90
55036;DHT22;40936;53.008;6.556;2023-05-10T15:04:47;17.40;99.90
55036;DHT22;40936;53.008;6.556;2023-05-10T15:07:12;17.80;99.90
55036;DHT22;40936;53.008;6.556;2023-05-10T15:09:40;17.60;99.90
55036;DHT22;40936;53.008;6.556;2023-05-10T15:12:06;17.60;99.90
55036;DHT22;40936;53.008;6.556;2023-05-10T15:14:31;17.70;99.90
55036;DHT22;40936;53.008;6.556;2023-05-10T15:16:58;17.80;99.90
55036;DHT22;40936;53.008;6.556;2023-05-10T15:19:24;18.10;99.90
55036;DHT22;40936;53.008;6.556;2023-05-10T15:21:49;17.90;99.90
55036;DHT22;40936;53.008;6.556;2023-05-10T15:24:15;17.90;99.90
55036;DHT22;40936;53.008;6.556;2023-05-10T15:26:41;18.10;99.90
55036;DHT22;40936;53.008;6.556;2023-05-10T15:29:06;18.10;99.90
55036;DHT22;40936;53.008;6.556;2023-05-10T15:31:32;18.30;99.90
55036;DHT22;40936;53.008;6.556;2023-05-10T15:34:00;18.20;99.90
55036;DHT22;40936;53.008;6.556;2023-05-10T15:36:26;18.30;99.90
55036;DHT22;40936;53.008;6.556;2023-05-10T15:38:52;18.20;99.90
55036;DHT22;40936;53.008;6.556;2023-05-10T15:41:18;18.10;99.90
55036;DHT22;40936;53.008;6.556;2023-05-10T15:43:44;18.30;99.90
55036;DHT22;40936;53.008;6.556;2023-05-10T15:46:09;18.20;99.90
55036;DHT22;40936;53.008;6.556;2023-05-10T15:48:35;18.20;99.90
55036;DHT22;40936;53.008;6.556;2023-05-10T15:51:00;18.20;99.90
55036;DHT22;40936;53.008;6.556;2023-05-10T15:53:26;18.30;99.90
55036;DHT22;40936;53.008;6.556;2023-05-10T15:55:52;18.40;99.90
55036;DHT22;40936;53.008;6.556;2023-05-10T15:58:18;18.50;99.90
55036;DHT22;40936;53.008;6.556;2023-05-10T16:00:43;18.40;99.90
55036;DHT22;40936;53.008;6.556;2023-05-10T16:03:09;18.40;73.00
55036;DHT22;40936;53.008;6.556;2023-05-10T16:05:34;18.50;1.00
55036;DHT22;40936;53.008;6.556;2023-05-10T16:08:00;18.40;1.00
55036;DHT22;40936;53.008;6.556;2023-05-10T16:10:26;18.50;99.90
55036;DHT22;40936;53.008;6.556;2023-05-10T16:12:52;18.40;99.90
55036;DHT22;40936;53.008;6.556;2023-05-10T16:15:18;18.30;1.00
55036;DHT22;40936;53.008;6.556;2023-05-10T16:17:46;18.20;99.90
55036;DHT22;40936;53.008;6.556;2023-05-10T16:20:11;18.10;99.90
55036;DHT22;40936;53.008;6.556;2023-05-10T16:22:37;18.10;99.90
55036;DHT22;40936;53.008;6.556;2023-05-10T16:25:03;17.90;76.50
55036;DHT22;40936;53.008;6.556;2023-05-10T16:27:28;17.80;1.00
55036;DHT22;40936;53.008;6.556;2023-05-10T16:29:54;17.80;99.90
55036;DHT22;40936;53.008;6.556;2023-05-10T16:32:20;17.60;99.90
55036;DHT22;40936;53.008;6.556;2023-05-10T16:34:45;17.60;99.90
55036;DHT22;40936;53.008;6.556;2023-05-10T16:37:11;17.50;99.90
55036;DHT22;40936;53.008;6.556;2023-05-10T16:39:37;17.60;36.30
55036;DHT22;40936;53.008;6.556;2023-05-10T16:42:02;17.50;1.00
55036;DHT22;40936;53.008;6.556;2023-05-10T16:44:28;17.40;1.00
55036;DHT22;40936;53.008;6.556;2023-05-10T16:46:54;17.40;1.00